Aysenur — ERJR — position and weather

sailwx.info

Track history (hours):
 
Tides and Currents Weather Stations Pressure Air Temp Water Temp Dewpoint Dewpoint Depression Visibility Wind Speed Wind Dir Waves Ship Positions

Aysenur

Last reported at 2015-Apr-26 22:26 UTC. Time now 2015-Apr-28 00:36 UTC.
Position N 46°17' E 030°54'.

Length 79 m; draft 5.1 m.

Type: Cargo ship. MMSI: 214181018.

Date/timePositionNaut miles runAvg speedWind from/ knotsBaromVisibWave heightAir tempDewpointWater temp
2015-Apr-26 22:26N 46°17' E 030°54'8 8.6
2015-Apr-26 21:32N 46°24' E 030°55'22 7.3
2015-Apr-26 18:33N 46°35' E 031°23'9 8.2
2015-Apr-26 17:24N 46°35' E 031°37'7 8.9
2015-Apr-26 16:33N 46°36' E 031°48'8 7.9
2015-Apr-26 15:33N 46°41' E 031°56'8 7.6
2015-Apr-26 14:33N 46°49' E 031°54'4 4.3
2015-Apr-26 13:33N 46°51' E 031°59'0 0.0
2015-Apr-26 12:33N 46°51' E 031°59'0 0.0
2015-Apr-26 11:33N 46°51' E 031°59'0 0.0
2015-Apr-26 10:33N 46°51' E 031°59'0 0.0
2015-Apr-26 09:33N 46°51' E 031°59'0 0.0
2015-Apr-26 08:33N 46°51' E 031°59'0 0.0
2015-Apr-26 07:33N 46°51' E 031°59'0 0.0
2015-Apr-26 06:33N 46°51' E 031°59'0 0.0
2015-Apr-26 05:33N 46°51' E 031°59'0 0.0
2015-Apr-26 04:33N 46°51' E 031°59'0 0.0
2015-Apr-26 03:33N 46°51' E 031°59'0 0.0
2015-Apr-26 02:33N 46°51' E 031°59'0 0.0
2015-Apr-26 01:33N 46°51' E 031°59'0 0.0
2015-Apr-26 00:33N 46°51' E 031°59'0 0.0
2015-Apr-25 23:33N 46°51' E 031°59'0 0.0
2015-Apr-25 22:33N 46°51' E 031°59'0 0.0
2015-Apr-25 21:33N 46°51' E 031°59'0 0.0
2015-Apr-25 20:33N 46°51' E 031°59'0 0.0
2015-Apr-25 19:33N 46°51' E 031°59'0 0.0
2015-Apr-25 18:33N 46°51' E 031°59'0 0.0
2015-Apr-25 17:33N 46°51' E 031°59'0 0.0
2015-Apr-25 16:33N 46°51' E 031°59'0 0.0
2015-Apr-25 15:33N 46°51' E 031°59'0 0.0
2015-Apr-25 14:33N 46°51' E 031°59'0 0.0
2015-Apr-25 13:33N 46°51' E 031°59'0 0.0
2015-Apr-25 12:33N 46°51' E 031°59'0 0.0
2015-Apr-25 11:33N 46°51' E 031°59'0 0.0
2015-Apr-25 10:33N 46°51' E 031°59'0 0.0
2015-Apr-25 09:33N 46°51' E 031°59'0 0.0
2015-Apr-25 08:33N 46°51' E 031°59'0 0.0
2015-Apr-25 07:33N 46°51' E 031°59'0 0.0
2015-Apr-25 06:33N 46°51' E 031°59'0 0.0
2015-Apr-25 05:33N 46°51' E 031°59'0 0.0
2015-Apr-25 04:33N 46°51' E 031°59'0 0.0
2015-Apr-25 03:33N 46°51' E 031°59'0 0.0
2015-Apr-25 02:33N 46°51' E 031°59'0 0.0
2015-Apr-25 01:33N 46°51' E 031°59'0 0.0
2015-Apr-25 00:33N 46°51' E 031°59'0 0.0
2015-Apr-24 23:33N 46°51' E 031°59'0 0.0
2015-Apr-24 22:33N 46°51' E 031°59'0 0.0
2015-Apr-24 21:33N 46°51' E 031°59'0 0.0
2015-Apr-24 20:33N 46°51' E 031°59'0 0.0
2015-Apr-24 19:33N 46°51' E 031°59'0 0.0
2015-Apr-24 18:33N 46°51' E 031°59'0 0.0
2015-Apr-24 17:33N 46°51' E 031°59'0 0.0
2015-Apr-24 16:33N 46°51' E 031°59'0 0.0
2015-Apr-24 15:33N 46°51' E 031°59'0 0.0
2015-Apr-24 14:33N 46°51' E 031°59'0 0.0
2015-Apr-24 13:33N 46°51' E 031°59'0 0.0
2015-Apr-24 12:33N 46°51' E 031°59'0 0.0
2015-Apr-24 11:33N 46°51' E 031°59'0 0.0
2015-Apr-24 10:33N 46°51' E 031°59'0 0.0
2015-Apr-24 09:33N 46°51' E 031°59'0 0.0
2015-Apr-24 08:33N 46°51' E 031°59'0 0.0
2015-Apr-24 07:33N 46°51' E 031°59'0 0.0
2015-Apr-24 06:33N 46°51' E 031°59'0 0.0
2015-Apr-24 05:33N 46°51' E 031°59'0 0.0
2015-Apr-24 04:33N 46°51' E 031°59'0 0.0
2015-Apr-24 03:33N 46°51' E 031°59'0 0.0
2015-Apr-24 02:33N 46°51' E 031°59'0 0.0
2015-Apr-24 01:33N 46°51' E 031°59'0 0.0
2015-Apr-24 00:33N 46°51' E 031°59'0 0.0
2015-Apr-23 23:33N 46°51' E 031°59'0 0.0
2015-Apr-23 22:33N 46°51' E 031°59'0 0.0
2015-Apr-23 21:33N 46°51' E 031°59'0 0.0
2015-Apr-23 20:33N 46°51' E 031°59'0 0.0
2015-Apr-23 19:33N 46°51' E 031°59'0 0.0
2015-Apr-23 18:33N 46°51' E 031°59'0 0.0
2015-Apr-23 17:33N 46°51' E 031°59'0 0.0
2015-Apr-23 16:33N 46°51' E 031°59'0 0.0
2015-Apr-23 15:33N 46°51' E 031°59'0 0.0
2015-Apr-23 14:33N 46°51' E 031°59'0 0.0
2015-Apr-23 13:33N 46°51' E 031°59'0 0.0
2015-Apr-23 12:33N 46°51' E 031°59'0 0.0
2015-Apr-23 11:33N 46°51' E 031°59'0 0.0
2015-Apr-23 10:33N 46°51' E 031°59'0 0.0
2015-Apr-23 09:33N 46°51' E 031°59'0 0.0
2015-Apr-23 08:33N 46°51' E 031°59'0 0.0
2015-Apr-23 07:33N 46°51' E 031°59'0 0.0
2015-Apr-23 06:33N 46°51' E 031°59'0 0.0
2015-Apr-23 05:33N 46°51' E 031°59'0 0.0
2015-Apr-23 04:33N 46°51' E 031°59'0 0.0
2015-Apr-23 03:33N 46°51' E 031°59'0 0.0
2015-Apr-23 02:33N 46°51' E 031°59'0 0.0
2015-Apr-23 01:33N 46°51' E 031°59'0 0.0
2015-Apr-23 00:33N 46°51' E 031°59'0 0.0
2015-Apr-22 19:15N 46°51' E 031°59'0 0.0
2015-Apr-22 18:33N 46°51' E 031°59'0 0.0
2015-Apr-22 17:33N 46°51' E 031°59'0 0.0
2015-Apr-22 16:33N 46°51' E 031°59'0 0.0
2015-Apr-22 15:33N 46°51' E 031°59'0 0.0
2015-Apr-22 14:33N 46°51' E 031°59'0 0.0
2015-Apr-22 13:33N 46°51' E 031°59'0 0.1
2015-Apr-22 11:15N 46°51' E 031°59'3 4.6
2015-Apr-22 10:33N 46°49' E 031°55'6 6.3
2015-Apr-22 09:33N 46°43' E 031°56'9 8.5
2015-Apr-22 08:33N 46°36' E 031°49'9 9.3
2015-Apr-22 07:33N 46°35' E 031°36'322 8.0
2015-Apr-20 15:28N 41°30' E 029°15'13 9.8
2015-Apr-20 14:07N 41°17' E 029°11'20 7.5
2015-Apr-20 11:30N 40°60' E 029°00'4 4.5
2015-Apr-20 10:33N 40°56' E 028°57'3 3.2
2015-Apr-20 09:33N 40°59' E 028°56'0 0.0
2015-Apr-20 07:18N 40°59' E 028°56'0 0.0
2015-Apr-20 06:23N 40°59' E 028°56'0 0.0
2015-Apr-20 04:11N 40°59' E 028°56'0 0.0
2015-Apr-20 02:05N 40°59' E 028°56'0 0.0
2015-Apr-20 01:17N 40°59' E 028°56'0 0.0
2015-Apr-20 00:11N 40°59' E 028°56'0 0.0
2015-Apr-19 23:29N 40°59' E 028°56'2 1.0
2015-Apr-19 21:33N 40°57' E 028°57'7 7.4
2015-Apr-19 20:33N 40°51' E 028°50'  
Track history (hours):
 
Tides and Currents Weather Stations Pressure Air Temp Water Temp Dewpoint Dewpoint Depression Visibility Wind Speed Wind Dir Waves Ship Positions

Aysenur

Last reported at 2015-Apr-26 22:26 UTC. Time now 2015-Apr-28 00:36 UTC.
Position N 46°17' E 030°54'.

Length 79 m; draft 5.1 m.

Type: Cargo ship. MMSI: 214181018.

Date/timePositionNaut miles runAvg speedWind from/ knotsBaromVisibWave heightAir tempDewpointWater temp
2015-Apr-26 22:26N 46°17' E 030°54'8 8.6
2015-Apr-26 21:32N 46°24' E 030°55'22 7.3
2015-Apr-26 18:33N 46°35' E 031°23'9 8.2
2015-Apr-26 17:24N 46°35' E 031°37'7 8.9
2015-Apr-26 16:33N 46°36' E 031°48'8 7.9
2015-Apr-26 15:33N 46°41' E 031°56'8 7.6
2015-Apr-26 14:33N 46°49' E 031°54'4 4.3
2015-Apr-26 13:33N 46°51' E 031°59'0 0.0
2015-Apr-26 12:33N 46°51' E 031°59'0 0.0
2015-Apr-26 11:33N 46°51' E 031°59'0 0.0
2015-Apr-26 10:33N 46°51' E 031°59'0 0.0
2015-Apr-26 09:33N 46°51' E 031°59'0 0.0
2015-Apr-26 08:33N 46°51' E 031°59'0 0.0
2015-Apr-26 07:33N 46°51' E 031°59'0 0.0
2015-Apr-26 06:33N 46°51' E 031°59'0 0.0
2015-Apr-26 05:33N 46°51' E 031°59'0 0.0
2015-Apr-26 04:33N 46°51' E 031°59'0 0.0
2015-Apr-26 03:33N 46°51' E 031°59'0 0.0
2015-Apr-26 02:33N 46°51' E 031°59'0 0.0
2015-Apr-26 01:33N 46°51' E 031°59'0 0.0
2015-Apr-26 00:33N 46°51' E 031°59'0 0.0
2015-Apr-25 23:33N 46°51' E 031°59'0 0.0
2015-Apr-25 22:33N 46°51' E 031°59'0 0.0
2015-Apr-25 21:33N 46°51' E 031°59'0 0.0
2015-Apr-25 20:33N 46°51' E 031°59'0 0.0
2015-Apr-25 19:33N 46°51' E 031°59'0 0.0
2015-Apr-25 18:33N 46°51' E 031°59'0 0.0
2015-Apr-25 17:33N 46°51' E 031°59'0 0.0
2015-Apr-25 16:33N 46°51' E 031°59'0 0.0
2015-Apr-25 15:33N 46°51' E 031°59'0 0.0
2015-Apr-25 14:33N 46°51' E 031°59'0 0.0
2015-Apr-25 13:33N 46°51' E 031°59'0 0.0
2015-Apr-25 12:33N 46°51' E 031°59'0 0.0
2015-Apr-25 11:33N 46°51' E 031°59'0 0.0
2015-Apr-25 10:33N 46°51' E 031°59'0 0.0
2015-Apr-25 09:33N 46°51' E 031°59'0 0.0
2015-Apr-25 08:33N 46°51' E 031°59'0 0.0
2015-Apr-25 07:33N 46°51' E 031°59'0 0.0
2015-Apr-25 06:33N 46°51' E 031°59'0 0.0
2015-Apr-25 05:33N 46°51' E 031°59'0 0.0
2015-Apr-25 04:33N 46°51' E 031°59'0 0.0
2015-Apr-25 03:33N 46°51' E 031°59'0 0.0
2015-Apr-25 02:33N 46°51' E 031°59'0 0.0
2015-Apr-25 01:33N 46°51' E 031°59'0 0.0
2015-Apr-25 00:33N 46°51' E 031°59'0 0.0
2015-Apr-24 23:33N 46°51' E 031°59'0 0.0
2015-Apr-24 22:33N 46°51' E 031°59'0 0.0
2015-Apr-24 21:33N 46°51' E 031°59'0 0.0
2015-Apr-24 20:33N 46°51' E 031°59'0 0.0
2015-Apr-24 19:33N 46°51' E 031°59'0 0.0
2015-Apr-24 18:33N 46°51' E 031°59'0 0.0
2015-Apr-24 17:33N 46°51' E 031°59'0 0.0
2015-Apr-24 16:33N 46°51' E 031°59'0 0.0
2015-Apr-24 15:33N 46°51' E 031°59'0 0.0
2015-Apr-24 14:33N 46°51' E 031°59'0 0.0
2015-Apr-24 13:33N 46°51' E 031°59'0 0.0
2015-Apr-24 12:33N 46°51' E 031°59'0 0.0
2015-Apr-24 11:33N 46°51' E 031°59'0 0.0
2015-Apr-24 10:33N 46°51' E 031°59'0 0.0
2015-Apr-24 09:33N 46°51' E 031°59'0 0.0
2015-Apr-24 08:33N 46°51' E 031°59'0 0.0
2015-Apr-24 07:33N 46°51' E 031°59'0 0.0
2015-Apr-24 06:33N 46°51' E 031°59'0 0.0
2015-Apr-24 05:33N 46°51' E 031°59'0 0.0
2015-Apr-24 04:33N 46°51' E 031°59'0 0.0
2015-Apr-24 03:33N 46°51' E 031°59'0 0.0
2015-Apr-24 02:33N 46°51' E 031°59'0 0.0
2015-Apr-24 01:33N 46°51' E 031°59'0 0.0
2015-Apr-24 00:33N 46°51' E 031°59'0 0.0
2015-Apr-23 23:33N 46°51' E 031°59'0 0.0
2015-Apr-23 22:33N 46°51' E 031°59'0 0.0
2015-Apr-23 21:33N 46°51' E 031°59'0 0.0
2015-Apr-23 20:33N 46°51' E 031°59'0 0.0
2015-Apr-23 19:33N 46°51' E 031°59'0 0.0
2015-Apr-23 18:33N 46°51' E 031°59'0 0.0
2015-Apr-23 17:33N 46°51' E 031°59'0 0.0
2015-Apr-23 16:33N 46°51' E 031°59'0 0.0
2015-Apr-23 15:33N 46°51' E 031°59'0 0.0
2015-Apr-23 14:33N 46°51' E 031°59'0 0.0
2015-Apr-23 13:33N 46°51' E 031°59'0 0.0
2015-Apr-23 12:33N 46°51' E 031°59'0 0.0
2015-Apr-23 11:33N 46°51' E 031°59'0 0.0
2015-Apr-23 10:33N 46°51' E 031°59'0 0.0
2015-Apr-23 09:33N 46°51' E 031°59'0 0.0
2015-Apr-23 08:33N 46°51' E 031°59'0 0.0
2015-Apr-23 07:33N 46°51' E 031°59'0 0.0
2015-Apr-23 06:33N 46°51' E 031°59'0 0.0
2015-Apr-23 05:33N 46°51' E 031°59'0 0.0
2015-Apr-23 04:33N 46°51' E 031°59'0 0.0
2015-Apr-23 03:33N 46°51' E 031°59'0 0.0
2015-Apr-23 02:33N 46°51' E 031°59'0 0.0
2015-Apr-23 01:33N 46°51' E 031°59'0 0.0
2015-Apr-23 00:33N 46°51' E 031°59'0 0.0
2015-Apr-22 19:15N 46°51' E 031°59'0 0.0
2015-Apr-22 18:33N 46°51' E 031°59'0 0.0
2015-Apr-22 17:33N 46°51' E 031°59'0 0.0
2015-Apr-22 16:33N 46°51' E 031°59'0 0.0
2015-Apr-22 15:33N 46°51' E 031°59'0 0.0
2015-Apr-22 14:33N 46°51' E 031°59'0 0.0
2015-Apr-22 13:33N 46°51' E 031°59'0 0.1
2015-Apr-22 11:15N 46°51' E 031°59'3 4.6
2015-Apr-22 10:33N 46°49' E 031°55'6 6.3
2015-Apr-22 09:33N 46°43' E 031°56'9 8.5
2015-Apr-22 08:33N 46°36' E 031°49'9 9.3
2015-Apr-22 07:33N 46°35' E 031°36'322 8.0
2015-Apr-20 15:28N 41°30' E 029°15'13 9.8
2015-Apr-20 14:07N 41°17' E 029°11'20 7.5
2015-Apr-20 11:30N 40°60' E 029°00'4 4.5
2015-Apr-20 10:33N 40°56' E 028°57'3 3.2
2015-Apr-20 09:33N 40°59' E 028°56'0 0.0
2015-Apr-20 07:18N 40°59' E 028°56'0 0.0
2015-Apr-20 06:23N 40°59' E 028°56'0 0.0
2015-Apr-20 04:11N 40°59' E 028°56'0 0.0
2015-Apr-20 02:05N 40°59' E 028°56'0 0.0
2015-Apr-20 01:17N 40°59' E 028°56'0 0.0
2015-Apr-20 00:11N 40°59' E 028°56'0 0.0
2015-Apr-19 23:29N 40°59' E 028°56'2 1.0
2015-Apr-19 21:33N 40°57' E 028°57'7 7.4
2015-Apr-19 20:33N 40°51' E 028°50'  

Dump ship's entire track history